sensor_id;sensor_type;location;lat;lon;timestamp;pressure;altitude;pressure_sealevel;temperature;humidity
43147;BME280;28752;48.266;7.402;2024-01-06T00:00:23;98287.22;;;10.09;59.07
43147;BME280;28752;48.266;7.402;2024-01-06T00:02:49;98297.41;;;10.29;58.14
43147;BME280;28752;48.266;7.402;2024-01-06T00:05:14;98285.22;;;10.20;58.74
43147;BME280;28752;48.266;7.402;2024-01-06T00:07:40;98282.63;;;10.03;58.51
43147;BME280;28752;48.266;7.402;2024-01-06T00:10:06;98288.16;;;10.33;58.54
43147;BME280;28752;48.266;7.402;2024-01-06T00:12:31;98272.38;;;10.08;58.89
43147;BME280;28752;48.266;7.402;2024-01-06T00:14:57;98278.97;;;10.04;58.84
43147;BME280;28752;48.266;7.402;2024-01-06T00:17:22;98279.97;;;10.11;59.20
43147;BME280;28752;48.266;7.402;2024-01-06T00:19:47;98286.53;;;10.16;59.07
43147;BME280;28752;48.266;7.402;2024-01-06T00:22:16;98290.53;;;10.11;59.49
43147;BME280;28752;48.266;7.402;2024-01-06T00:24:42;98292.88;;;9.98;59.30
43147;BME280;28752;48.266;7.402;2024-01-06T00:27:07;98286.56;;;10.07;59.03
43147;BME280;28752;48.266;7.402;2024-01-06T00:29:32;98292.31;;;10.19;58.80
43147;BME280;28752;48.266;7.402;2024-01-06T00:31:58;98296.31;;;10.15;58.75
43147;BME280;28752;48.266;7.402;2024-01-06T00:34:23;98300.56;;;10.24;58.32
43147;BME280;28752;48.266;7.402;2024-01-06T00:36:48;98306.13;;;9.98;58.64
43147;BME280;28752;48.266;7.402;2024-01-06T00:39:14;98312.97;;;10.24;58.73
43147;BME280;28752;48.266;7.402;2024-01-06T00:41:39;98318.41;;;10.30;58.05
43147;BME280;28752;48.266;7.402;2024-01-06T00:44:04;98315.25;;;10.35;57.83
43147;BME280;28752;48.266;7.402;2024-01-06T00:46:30;98312.66;;;10.19;58.37
43147;BME280;28752;48.266;7.402;2024-01-06T00:48:55;98312.47;;;10.28;57.43
43147;BME280;28752;48.266;7.402;2024-01-06T00:51:20;98321.88;;;10.31;57.59
43147;BME280;28752;48.266;7.402;2024-01-06T00:53:46;98336.75;;;10.32;57.68
43147;BME280;28752;48.266;7.402;2024-01-06T00:56:12;98335.41;;;10.44;57.55
43147;BME280;28752;48.266;7.402;2024-01-06T00:58:37;98332.47;;;10.39;57.75
43147;BME280;28752;48.266;7.402;2024-01-06T01:01:03;98336.59;;;10.34;58.04
43147;BME280;28752;48.266;7.402;2024-01-06T01:03:28;98342.72;;;10.26;57.97
43147;BME280;28752;48.266;7.402;2024-01-06T01:05:53;98349.69;;;10.19;57.81
43147;BME280;28752;48.266;7.402;2024-01-06T01:08:19;98346.69;;;10.22;57.63
43147;BME280;28752;48.266;7.402;2024-01-06T01:10:44;98348.50;;;10.38;57.16
43147;BME280;28752;48.266;7.402;2024-01-06T01:13:10;98347.53;;;10.22;58.11
43147;BME280;28752;48.266;7.402;2024-01-06T01:15:35;98359.91;;;10.30;58.44
43147;BME280;28752;48.266;7.402;2024-01-06T01:18:01;98357.78;;;10.25;57.76
43147;BME280;28752;48.266;7.402;2024-01-06T01:20:26;98356.63;;;10.20;58.60
43147;BME280;28752;48.266;7.402;2024-01-06T01:22:51;98360.25;;;10.27;57.49
43147;BME280;28752;48.266;7.402;2024-01-06T01:25:17;98354.97;;;10.27;57.91
43147;BME280;28752;48.266;7.402;2024-01-06T01:27:42;98360.44;;;10.17;59.05
43147;BME280;28752;48.266;7.402;2024-01-06T01:30:08;98369.84;;;10.36;58.00
43147;BME280;28752;48.266;7.402;2024-01-06T01:32:33;98367.38;;;10.35;57.62
43147;BME280;28752;48.266;7.402;2024-01-06T01:34:58;98369.03;;;10.19;58.52
43147;BME280;28752;48.266;7.402;2024-01-06T01:37:24;98377.97;;;10.18;58.81
43147;BME280;28752;48.266;7.402;2024-01-06T01:39:49;98383.25;;;10.18;58.90
43147;BME280;28752;48.266;7.402;2024-01-06T01:42:14;98384.06;;;10.27;59.20
43147;BME280;28752;48.266;7.402;2024-01-06T01:44:40;98389.88;;;10.14;59.30
43147;BME280;28752;48.266;7.402;2024-01-06T01:47:05;98387.75;;;10.01;59.50
43147;BME280;28752;48.266;7.402;2024-01-06T01:49:31;98384.47;;;9.99;60.00
43147;BME280;28752;48.266;7.402;2024-01-06T01:51:58;98385.59;;;9.96;59.99
43147;BME280;28752;48.266;7.402;2024-01-06T01:54:23;98395.38;;;9.96;60.38
43147;BME280;28752;48.266;7.402;2024-01-06T01:56:49;98396.69;;;10.08;59.93
43147;BME280;28752;48.266;7.402;2024-01-06T01:59:17;98395.03;;;9.99;60.33
43147;BME280;28752;48.266;7.402;2024-01-06T02:01:43;98393.84;;;10.02;60.09
43147;BME280;28752;48.266;7.402;2024-01-06T02:04:09;98404.78;;;9.82;59.65
43147;BME280;28752;48.266;7.402;2024-01-06T02:06:34;98392.56;;;9.89;59.48
43147;BME280;28752;48.266;7.402;2024-01-06T02:09:00;98402.63;;;10.02;59.59
43147;BME280;28752;48.266;7.402;2024-01-06T02:11:25;98401.78;;;10.10;59.20
43147;BME280;28752;48.266;7.402;2024-01-06T02:13:51;98391.03;;;10.03;59.06
43147;BME280;28752;48.266;7.402;2024-01-06T02:16:16;98410.06;;;9.82;59.33
43147;BME280;28752;48.266;7.402;2024-01-06T02:18:42;98402.47;;;10.04;59.27
43147;BME280;28752;48.266;7.402;2024-01-06T02:21:07;98406.59;;;9.90;59.30
43147;BME280;28752;48.266;7.402;2024-01-06T02:23:34;98405.28;;;9.86;59.06
43147;BME280;28752;48.266;7.402;2024-01-06T02:26:00;98416.53;;;9.96;58.89
43147;BME280;28752;48.266;7.402;2024-01-06T02:28:25;98419.50;;;9.93;59.23
43147;BME280;28752;48.266;7.402;2024-01-06T02:30:51;98414.38;;;9.75;59.75
43147;BME280;28752;48.266;7.402;2024-01-06T02:33:26;98421.16;;;9.86;59.61
43147;BME280;28752;48.266;7.402;2024-01-06T02:35:52;98430.72;;;9.87;58.92
43147;BME280;28752;48.266;7.402;2024-01-06T02:38:18;98430.22;;;9.91;59.29
43147;BME280;28752;48.266;7.402;2024-01-06T02:40:46;98410.56;;;9.86;58.98
43147;BME280;28752;48.266;7.402;2024-01-06T02:43:12;98417.84;;;9.84;59.16
43147;BME280;28752;48.266;7.402;2024-01-06T02:45:40;98414.22;;;9.85;59.22
43147;BME280;28752;48.266;7.402;2024-01-06T02:48:06;98416.50;;;9.47;59.94
43147;BME280;28752;48.266;7.402;2024-01-06T02:50:32;98415.06;;;9.69;59.91
43147;BME280;28752;48.266;7.402;2024-01-06T02:52:59;98413.69;;;9.48;60.18
43147;BME280;28752;48.266;7.402;2024-01-06T02:55:24;98413.06;;;9.63;59.76
43147;BME280;28752;48.266;7.402;2024-01-06T02:57:51;98419.97;;;9.64;59.90
43147;BME280;28752;48.266;7.402;2024-01-06T03:00:16;98421.81;;;9.80;59.47
43147;BME280;28752;48.266;7.402;2024-01-06T03:02:42;98427.09;;;9.96;59.21
43147;BME280;28752;48.266;7.402;2024-01-06T03:05:09;98438.00;;;10.01;59.33
43147;BME280;28752;48.266;7.402;2024-01-06T03:07:34;98435.00;;;9.71;60.03
43147;BME280;28752;48.266;7.402;2024-01-06T03:10:00;98436.66;;;9.97;59.27
43147;BME280;28752;48.266;7.402;2024-01-06T03:12:25;98434.22;;;9.87;58.75
43147;BME280;28752;48.266;7.402;2024-01-06T03:14:50;98440.13;;;10.06;59.20
43147;BME280;28752;48.266;7.402;2024-01-06T03:17:17;98422.81;;;9.95;59.26
43147;BME280;28752;48.266;7.402;2024-01-06T03:19:42;98431.88;;;9.92;59.79
43147;BME280;28752;48.266;7.402;2024-01-06T03:22:07;98427.91;;;10.13;59.26
43147;BME280;28752;48.266;7.402;2024-01-06T03:24:33;98431.91;;;10.01;59.50
43147;BME280;28752;48.266;7.402;2024-01-06T03:26:58;98424.13;;;9.91;59.85
43147;BME280;28752;48.266;7.402;2024-01-06T03:29:23;98426.78;;;9.66;60.16
43147;BME280;28752;48.266;7.402;2024-01-06T03:31:48;98417.34;;;10.13;59.11
43147;BME280;28752;48.266;7.402;2024-01-06T03:34:14;98425.28;;;9.96;59.20
43147;BME280;28752;48.266;7.402;2024-01-06T03:36:40;98432.19;;;10.22;58.83
43147;BME280;28752;48.266;7.402;2024-01-06T03:39:06;98436.81;;;10.28;58.67
43147;BME280;28752;48.266;7.402;2024-01-06T03:41:32;98430.41;;;9.98;59.60
43147;BME280;28752;48.266;7.402;2024-01-06T03:43:58;98427.22;;;10.11;59.20
43147;BME280;28752;48.266;7.402;2024-01-06T03:46:23;98429.72;;;10.04;59.28
43147;BME280;28752;48.266;7.402;2024-01-06T03:48:49;98425.28;;;9.96;59.12
43147;BME280;28752;48.266;7.402;2024-01-06T03:51:14;98429.88;;;10.19;58.80
43147;BME280;28752;48.266;7.402;2024-01-06T03:53:40;98417.66;;;10.02;59.42
43147;BME280;28752;48.266;7.402;2024-01-06T03:56:06;98433.03;;;9.90;59.29
43147;BME280;28752;48.266;7.402;2024-01-06T03:58:31;98434.19;;;9.95;59.18
43147;BME280;28752;48.266;7.402;2024-01-06T04:00:56;98434.19;;;9.95;58.87
43147;BME280;28752;48.266;7.402;2024-01-06T04:03:22;98435.22;;;9.94;58.53
43147;BME280;28752;48.266;7.402;2024-01-06T04:05:47;98432.56;;;9.94;58.41
43147;BME280;28752;48.266;7.402;2024-01-06T04:08:12;98433.34;;;10.03;57.97
43147;BME280;28752;48.266;7.402;2024-01-06T04:10:38;98438.00;;;10.01;58.34
43147;BME280;28752;48.266;7.402;2024-01-06T04:13:04;98434.03;;;9.89;58.40
43147;BME280;28752;48.266;7.402;2024-01-06T04:15:29;98438.84;;;9.69;58.13
43147;BME280;28752;48.266;7.402;2024-01-06T04:17:56;98438.16;;;9.67;58.36
43147;BME280;28752;48.266;7.402;2024-01-06T04:20:25;98441.47;;;9.60;58.62
43147;BME280;28752;48.266;7.402;2024-01-06T04:22:50;98432.88;;;9.83;58.10
43147;BME280;28752;48.266;7.402;2024-01-06T04:25:16;98431.41;;;9.72;58.48
43147;BME280;28752;48.266;7.402;2024-01-06T04:27:41;98440.16;;;9.98;57.87
43147;BME280;28752;48.266;7.402;2024-01-06T04:30:07;98439.13;;;9.57;58.43
43147;BME280;28752;48.266;7.402;2024-01-06T04:32:32;98438.34;;;9.73;58.31
43147;BME280;28752;48.266;7.402;2024-01-06T04:34:58;98437.34;;;9.66;58.16
43147;BME280;28752;48.266;7.402;2024-01-06T04:37:23;98439.66;;;9.61;58.39
43147;BME280;28752;48.266;7.402;2024-01-06T04:39:49;98425.28;;;9.72;58.33
43147;BME280;28752;48.266;7.402;2024-01-06T04:42:14;98432.69;;;9.35;59.24
43147;BME280;28752;48.266;7.402;2024-01-06T04:44:40;98436.81;;;9.38;58.38
43147;BME280;28752;48.266;7.402;2024-01-06T04:47:05;98433.56;;;9.69;57.73
43147;BME280;28752;48.266;7.402;2024-01-06T04:49:31;98433.88;;;9.74;57.45
43147;BME280;28752;48.266;7.402;2024-01-06T04:51:56;98436.19;;;9.52;58.14
43147;BME280;28752;48.266;7.402;2024-01-06T04:54:21;98438.81;;;9.77;57.81
43147;BME280;28752;48.266;7.402;2024-01-06T04:56:47;98446.59;;;9.87;57.64
43147;BME280;28752;48.266;7.402;2024-01-06T04:59:13;98439.81;;;9.76;57.97
43147;BME280;28752;48.266;7.402;2024-01-06T05:01:39;98448.22;;;9.71;58.40
43147;BME280;28752;48.266;7.402;2024-01-06T05:04:04;98442.28;;;9.69;58.48
43147;BME280;28752;48.266;7.402;2024-01-06T05:06:30;98449.72;;;9.74;58.31
43147;BME280;28752;48.266;7.402;2024-01-06T05:08:56;98460.47;;;9.81;58.65
43147;BME280;28752;48.266;7.402;2024-01-06T05:11:22;98454.84;;;9.84;59.10
43147;BME280;28752;48.266;7.402;2024-01-06T05:13:48;98459.16;;;9.85;59.36
43147;BME280;28752;48.266;7.402;2024-01-06T05:16:14;98461.31;;;9.89;59.31
43147;BME280;28752;48.266;7.402;2024-01-06T05:18:39;98463.13;;;9.89;59.52
43147;BME280;28752;48.266;7.402;2024-01-06T05:21:04;98460.97;;;9.84;59.71
43147;BME280;28752;48.266;7.402;2024-01-06T05:23:30;98461.16;;;9.83;59.73
43147;BME280;28752;48.266;7.402;2024-01-06T05:25:55;98464.13;;;9.80;60.07
43147;BME280;28752;48.266;7.402;2024-01-06T05:28:21;98471.22;;;9.71;60.28
43147;BME280;28752;48.266;7.402;2024-01-06T05:30:46;98472.03;;;9.71;60.31
43147;BME280;28752;48.266;7.402;2024-01-06T05:33:12;98476.34;;;9.64;60.41
43147;BME280;28752;48.266;7.402;2024-01-06T05:35:38;98476.78;;;9.51;60.95
43147;BME280;28752;48.266;7.402;2024-01-06T05:38:04;98474.81;;;9.53;61.08
43147;BME280;28752;48.266;7.402;2024-01-06T05:40:29;98473.53;;;9.66;60.78
43147;BME280;28752;48.266;7.402;2024-01-06T05:42:54;98469.06;;;9.66;60.49
43147;BME280;28752;48.266;7.402;2024-01-06T05:45:22;98482.59;;;9.63;60.11
43147;BME280;28752;48.266;7.402;2024-01-06T05:47:47;98484.09;;;9.82;59.73
43147;BME280;28752;48.266;7.402;2024-01-06T05:50:15;98478.31;;;9.78;57.96
43147;BME280;28752;48.266;7.402;2024-01-06T05:52:41;98487.88;;;9.63;58.46
43147;BME280;28752;48.266;7.402;2024-01-06T05:55:06;98485.91;;;9.90;57.66
43147;BME280;28752;48.266;7.402;2024-01-06T05:57:32;98491.72;;;9.93;58.19
43147;BME280;28752;48.266;7.402;2024-01-06T05:59:57;98496.50;;;10.06;58.45
43147;BME280;28752;48.266;7.402;2024-01-06T06:02:22;98492.06;;;10.07;58.38
43147;BME280;28752;48.266;7.402;2024-01-06T06:04:48;98500.63;;;10.09;58.61
43147;BME280;28752;48.266;7.402;2024-01-06T06:07:13;98508.75;;;10.07;58.94
43147;BME280;28752;48.266;7.402;2024-01-06T06:09:39;98504.94;;;10.02;59.08
43147;BME280;28752;48.266;7.402;2024-01-06T06:12:05;98502.94;;;9.95;59.22
43147;BME280;28752;48.266;7.402;2024-01-06T06:14:31;98510.41;;;10.08;59.09
43147;BME280;28752;48.266;7.402;2024-01-06T06:16:56;98508.25;;;10.04;58.77
43147;BME280;28752;48.266;7.402;2024-01-06T06:19:22;98504.28;;;10.00;59.26
43147;BME280;28752;48.266;7.402;2024-01-06T06:21:47;98512.06;;;9.93;59.23
43147;BME280;28752;48.266;7.402;2024-01-06T06:24:12;98520.31;;;9.98;59.04
43147;BME280;28752;48.266;7.402;2024-01-06T06:26:38;98519.47;;;9.81;59.01
43147;BME280;28752;48.266;7.402;2024-01-06T06:29:04;98526.75;;;9.87;58.76
43147;BME280;28752;48.266;7.402;2024-01-06T06:31:29;98531.69;;;9.99;58.18
43147;BME280;28752;48.266;7.402;2024-01-06T06:33:54;98530.06;;;9.98;58.37
43147;BME280;28752;48.266;7.402;2024-01-06T06:36:19;98540.63;;;10.14;58.12
43147;BME280;28752;48.266;7.402;2024-01-06T06:38:46;98553.22;;;10.12;57.78
43147;BME280;28752;48.266;7.402;2024-01-06T06:41:12;98543.78;;;10.18;57.97
43147;BME280;28752;48.266;7.402;2024-01-06T06:43:37;98559.81;;;10.24;57.90
43147;BME280;28752;48.266;7.402;2024-01-06T06:46:03;98550.72;;;10.19;58.07
43147;BME280;28752;48.266;7.402;2024-01-06T06:48:28;98551.88;;;10.08;59.23
43147;BME280;28752;48.266;7.402;2024-01-06T06:50:53;98558.34;;;10.13;59.88
43147;BME280;28752;48.266;7.402;2024-01-06T06:53:18;98560.81;;;10.15;60.05
43147;BME280;28752;48.266;7.402;2024-01-06T06:55:44;98565.06;;;9.91;61.21
43147;BME280;28752;48.266;7.402;2024-01-06T06:58:09;98567.88;;;9.82;61.06
43147;BME280;28752;48.266;7.402;2024-01-06T07:00:35;98562.59;;;9.82;61.66
43147;BME280;28752;48.266;7.402;2024-01-06T07:03:00;98573.16;;;9.73;61.89
43147;BME280;28752;48.266;7.402;2024-01-06T07:05:26;98572.00;;;9.76;62.41
43147;BME280;28752;48.266;7.402;2024-01-06T07:07:51;98582.06;;;9.64;63.00
43147;BME280;28752;48.266;7.402;2024-01-06T07:10:18;98581.53;;;9.52;63.49
43147;BME280;28752;48.266;7.402;2024-01-06T07:12:43;98586.00;;;9.68;63.49
43147;BME280;28752;48.266;7.402;2024-01-06T07:15:08;98584.97;;;9.45;63.90
43147;BME280;28752;48.266;7.402;2024-01-06T07:17:35;98588.09;;;9.48;64.01
43147;BME280;28752;48.266;7.402;2024-01-06T07:20:02;98590.09;;;9.54;63.99
43147;BME280;28752;48.266;7.402;2024-01-06T07:22:27;98587.66;;;9.61;63.76
43147;BME280;28752;48.266;7.402;2024-01-06T07:24:52;98591.06;;;9.53;63.88
43147;BME280;28752;48.266;7.402;2024-01-06T07:27:18;98597.84;;;9.48;64.49
43147;BME280;28752;48.266;7.402;2024-01-06T07:29:43;98603.31;;;9.54;64.41
43147;BME280;28752;48.266;7.402;2024-01-06T07:32:08;98601.66;;;9.53;64.18
43147;BME280;28752;48.266;7.402;2024-01-06T07:34:34;98605.47;;;9.59;64.03
43147;BME280;28752;48.266;7.402;2024-01-06T07:36:59;98604.84;;;9.65;63.53
43147;BME280;28752;48.266;7.402;2024-01-06T07:39:25;98610.09;;;9.57;64.04
43147;BME280;28752;48.266;7.402;2024-01-06T07:41:50;98604.44;;;9.52;63.93
43147;BME280;28752;48.266;7.402;2024-01-06T07:44:16;98616.59;;;9.71;62.85
43147;BME280;28752;48.266;7.402;2024-01-06T07:46:47;98614.81;;;9.88;61.50
43147;BME280;28752;48.266;7.402;2024-01-06T07:49:12;98613.84;;;9.89;61.32
43147;BME280;28752;48.266;7.402;2024-01-06T07:51:38;98606.03;;;9.71;61.71
43147;BME280;28752;48.266;7.402;2024-01-06T07:54:03;98614.59;;;9.65;61.40
43147;BME280;28752;48.266;7.402;2024-01-06T07:56:30;98601.59;;;9.80;61.01
43147;BME280;28752;48.266;7.402;2024-01-06T07:58:55;98604.56;;;9.85;61.03
43147;BME280;28752;48.266;7.402;2024-01-06T08:01:21;98605.53;;;9.67;61.37
43147;BME280;28752;48.266;7.402;2024-01-06T08:03:46;98606.03;;;9.71;61.67
43147;BME280;28752;48.266;7.402;2024-01-06T08:06:12;98608.56;;;9.89;61.03
43147;BME280;28752;48.266;7.402;2024-01-06T08:08:37;98610.22;;;9.98;60.52
43147;BME280;28752;48.266;7.402;2024-01-06T08:11:02;98610.03;;;9.91;60.61
43147;BME280;28752;48.266;7.402;2024-01-06T08:13:28;98610.16;;;9.73;61.39
43147;BME280;28752;48.266;7.402;2024-01-06T08:15:53;98606.34;;;9.76;61.21
43147;BME280;28752;48.266;7.402;2024-01-06T08:18:19;98598.63;;;9.83;60.41
43147;BME280;28752;48.266;7.402;2024-01-06T08:20:45;98606.56;;;9.83;60.81
43147;BME280;28752;48.266;7.402;2024-01-06T08:23:11;98603.31;;;10.13;59.72
43147;BME280;28752;48.266;7.402;2024-01-06T08:25:36;98609.69;;;9.86;59.87
43147;BME280;28752;48.266;7.402;2024-01-06T08:28:01;98611.25;;;10.22;59.82
43147;BME280;28752;48.266;7.402;2024-01-06T08:30:27;98607.81;;;10.38;59.08
43147;BME280;28752;48.266;7.402;2024-01-06T08:32:52;98614.59;;;10.48;58.48
43147;BME280;28752;48.266;7.402;2024-01-06T08:35:18;98618.75;;;10.35;58.42
43147;BME280;28752;48.266;7.402;2024-01-06T08:37:44;98621.06;;;10.38;58.90
43147;BME280;28752;48.266;7.402;2024-01-06T08:40:09;98629.81;;;10.38;58.54
43147;BME280;28752;48.266;7.402;2024-01-06T08:42:35;98635.03;;;10.13;58.92
43147;BME280;28752;48.266;7.402;2024-01-06T08:45:00;98631.75;;;10.11;58.71
43147;BME280;28752;48.266;7.402;2024-01-06T08:47:26;98632.28;;;10.23;58.54
43147;BME280;28752;48.266;7.402;2024-01-06T08:49:51;98637.06;;;10.28;58.70
43147;BME280;28752;48.266;7.402;2024-01-06T08:52:16;98636.28;;;10.44;58.93
43147;BME280;28752;48.266;7.402;2024-01-06T08:54:42;98647.97;;;10.25;60.21
43147;BME280;28752;48.266;7.402;2024-01-06T08:57:07;98649.34;;;10.37;59.37
43147;BME280;28752;48.266;7.402;2024-01-06T08:59:32;98644.06;;;10.45;58.77
43147;BME280;28752;48.266;7.402;2024-01-06T09:01:58;98650.69;;;10.66;59.09
43147;BME280;28752;48.266;7.402;2024-01-06T09:04:23;98645.00;;;10.28;59.45
43147;BME280;28752;48.266;7.402;2024-01-06T09:06:48;98648.56;;;9.94;59.48
43147;BME280;28752;48.266;7.402;2024-01-06T09:09:14;98651.50;;;10.42;59.29
43147;BME280;28752;48.266;7.402;2024-01-06T09:11:39;98643.72;;;10.48;59.37
43147;BME280;28752;48.266;7.402;2024-01-06T09:14:04;98643.41;;;10.43;59.62
43147;BME280;28752;48.266;7.402;2024-01-06T09:16:30;98644.94;;;9.95;60.35
43147;BME280;28752;48.266;7.402;2024-01-06T09:18:55;98644.06;;;10.45;59.72
43147;BME280;28752;48.266;7.402;2024-01-06T09:21:20;98646.66;;;10.29;60.00
43147;BME280;28752;48.266;7.402;2024-01-06T09:23:46;98643.63;;;10.07;60.72
43147;BME280;28752;48.266;7.402;2024-01-06T09:26:11;98652.00;;;10.37;59.94
43147;BME280;28752;48.266;7.402;2024-01-06T09:28:36;98651.16;;;10.37;59.73
43147;BME280;28752;48.266;7.402;2024-01-06T09:31:02;98648.03;;;10.49;59.93
43147;BME280;28752;48.266;7.402;2024-01-06T09:33:27;98654.81;;;10.60;59.54
43147;BME280;28752;48.266;7.402;2024-01-06T09:35:53;98654.38;;;10.14;60.05
43147;BME280;28752;48.266;7.402;2024-01-06T09:38:18;98657.59;;;10.51;59.52
43147;BME280;28752;48.266;7.402;2024-01-06T09:40:44;98662.59;;;10.78;58.15
43147;BME280;28752;48.266;7.402;2024-01-06T09:43:11;98660.44;;;10.57;58.65
43147;BME280;28752;48.266;7.402;2024-01-06T09:45:37;98654.16;;;10.66;59.16
43147;BME280;28752;48.266;7.402;2024-01-06T09:48:11;98646.88;;;10.77;58.18
43147;BME280;28752;48.266;7.402;2024-01-06T09:50:40;98659.44;;;10.75;57.62
43147;BME280;28752;48.266;7.402;2024-01-06T09:53:06;98666.38;;;10.84;57.46
43147;BME280;28752;48.266;7.402;2024-01-06T09:55:34;98664.75;;;10.99;57.57
43147;BME280;28752;48.266;7.402;2024-01-06T09:58:00;98662.75;;;10.93;58.26
43147;BME280;28752;48.266;7.402;2024-01-06T10:00:26;98669.53;;;11.20;58.02
43147;BME280;28752;48.266;7.402;2024-01-06T10:02:51;98664.84;;;11.31;56.71
43147;BME280;28752;48.266;7.402;2024-01-06T10:05:17;98665.31;;;11.51;56.28
43147;BME280;28752;48.266;7.402;2024-01-06T10:07:44;98648.75;;;11.41;56.44
43147;BME280;28752;48.266;7.402;2024-01-06T10:10:11;98655.81;;;11.65;56.34
43147;BME280;28752;48.266;7.402;2024-01-06T10:12:40;98650.03;;;11.53;56.18
43147;BME280;28752;48.266;7.402;2024-01-06T10:15:10;98657.41;;;11.26;56.50
43147;BME280;28752;48.266;7.402;2024-01-06T10:17:40;98651.53;;;11.47;57.04
43147;BME280;28752;48.266;7.402;2024-01-06T10:20:10;98649.06;;;11.54;56.23
43147;BME280;28752;48.266;7.402;2024-01-06T10:22:37;98651.63;;;11.14;57.16
43147;BME280;28752;48.266;7.402;2024-01-06T10:25:05;98650.00;;;10.97;57.55
43147;BME280;28752;48.266;7.402;2024-01-06T10:27:30;98643.19;;;11.11;56.98
43147;BME280;28752;48.266;7.402;2024-01-06T10:29:56;98651.66;;;10.90;58.24
43147;BME280;28752;48.266;7.402;2024-01-06T10:32:21;98644.22;;;10.85;58.37
43147;BME280;28752;48.266;7.402;2024-01-06T10:34:46;98661.59;;;10.88;58.14
43147;BME280;28752;48.266;7.402;2024-01-06T10:37:12;98649.03;;;10.98;58.20
43147;BME280;28752;48.266;7.402;2024-01-06T10:39:37;98654.97;;;10.83;58.64
43147;BME280;28752;48.266;7.402;2024-01-06T10:42:03;98659.78;;;10.96;58.06
43147;BME280;28752;48.266;7.402;2024-01-06T10:44:29;98658.88;;;11.29;57.64
43147;BME280;28752;48.266;7.402;2024-01-06T10:46:57;98656.09;;;11.22;57.34
43147;BME280;28752;48.266;7.402;2024-01-06T10:49:23;98660.03;;;11.34;57.66
43147;BME280;28752;48.266;7.402;2024-01-06T10:51:49;98654.94;;;11.16;57.70
43147;BME280;28752;48.266;7.402;2024-01-06T10:54:16;98663.88;;;11.24;57.07
43147;BME280;28752;48.266;7.402;2024-01-06T10:56:42;98661.19;;;11.32;57.65
43147;BME280;28752;48.266;7.402;2024-01-06T10:59:08;98661.72;;;11.27;57.69
43147;BME280;28752;48.266;7.402;2024-01-06T11:01:34;98670.66;;;11.34;57.85
43147;BME280;28752;48.266;7.402;2024-01-06T11:04:00;98666.97;;;11.35;56.53
43147;BME280;28752;48.266;7.402;2024-01-06T11:06:26;98666.88;;;11.04;57.97
43147;BME280;28752;48.266;7.402;2024-01-06T11:08:53;98666.88;;;11.20;57.44
43147;BME280;28752;48.266;7.402;2024-01-06T11:11:22;98665.19;;;11.28;56.88
43147;BME280;28752;48.266;7.402;2024-01-06T11:13:49;98661.41;;;11.14;57.63
43147;BME280;28752;48.266;7.402;2024-01-06T11:16:35;98667.69;;;11.21;57.52
43147;BME280;28752;48.266;7.402;2024-01-06T11:19:01;98661.25;;;10.99;57.50
43147;BME280;28752;48.266;7.402;2024-01-06T11:21:27;98658.63;;;10.91;57.86
43147;BME280;28752;48.266;7.402;2024-01-06T11:24:14;98657.44;;;11.01;56.76
43147;BME280;28752;48.266;7.402;2024-01-06T11:26:50;98668.22;;;10.59;58.15
43147;BME280;28752;48.266;7.402;2024-01-06T11:29:16;98657.91;;;11.30;56.88
43147;BME280;28752;48.266;7.402;2024-01-06T11:31:41;98668.78;;;11.43;56.42
43147;BME280;28752;48.266;7.402;2024-01-06T11:34:16;98657.69;;;11.48;56.40
43147;BME280;28752;48.266;7.402;2024-01-06T11:36:47;98652.56;;;11.38;56.42
43147;BME280;28752;48.266;7.402;2024-01-06T11:39:37;98661.22;;;11.80;55.61
43147;BME280;28752;48.266;7.402;2024-01-06T11:42:05;98667.16;;;11.82;55.68
43147;BME280;28752;48.266;7.402;2024-01-06T11:44:36;98654.53;;;11.52;55.92
43147;BME280;28752;48.266;7.402;2024-01-06T11:47:02;98657.91;;;11.22;57.72
43147;BME280;28752;48.266;7.402;2024-01-06T11:49:29;98646.28;;;11.39;57.82
43147;BME280;28752;48.266;7.402;2024-01-06T11:51:56;98647.91;;;11.48;57.17
43147;BME280;28752;48.266;7.402;2024-01-06T11:54:21;98657.78;;;11.63;57.25
43147;BME280;28752;48.266;7.402;2024-01-06T11:56:47;98657.81;;;11.54;57.72
43147;BME280;28752;48.266;7.402;2024-01-06T11:59:13;98656.91;;;11.79;57.39
43147;BME280;28752;48.266;7.402;2024-01-06T12:01:38;98656.03;;;11.86;57.25
43147;BME280;28752;48.266;7.402;2024-01-06T12:04:05;98658.75;;;11.70;57.39
43147;BME280;28752;48.266;7.402;2024-01-06T12:06:33;98655.41;;;11.76;57.00
43147;BME280;28752;48.266;7.402;2024-01-06T12:09:11;98654.53;;;11.52;57.35
43147;BME280;28752;48.266;7.402;2024-01-06T12:11:40;98651.09;;;11.75;56.78
43147;BME280;28752;48.266;7.402;2024-01-06T12:14:05;98641.34;;;11.76;56.46
43147;BME280;28752;48.266;7.402;2024-01-06T12:16:31;98655.19;;;11.94;56.34
43147;BME280;28752;48.266;7.402;2024-01-06T12:18:58;98650.22;;;11.51;56.64
43147;BME280;28752;48.266;7.402;2024-01-06T12:21:26;98647.34;;;11.69;56.58
43147;BME280;28752;48.266;7.402;2024-01-06T12:23:52;98643.72;;;11.62;57.31
43147;BME280;28752;48.266;7.402;2024-01-06T12:26:17;98649.56;;;11.41;57.85
43147;BME280;28752;48.266;7.402;2024-01-06T12:28:46;98645.44;;;11.47;56.72
43147;BME280;28752;48.266;7.402;2024-01-06T12:31:12;98646.88;;;11.58;57.38
43147;BME280;28752;48.266;7.402;2024-01-06T12:33:39;98637.84;;;11.75;56.34
43147;BME280;28752;48.266;7.402;2024-01-06T12:36:06;98641.94;;;11.94;57.13
43147;BME280;28752;48.266;7.402;2024-01-06T12:38:32;98635.63;;;11.55;55.98
43147;BME280;28752;48.266;7.402;2024-01-06T12:40:57;98637.94;;;11.59;57.55
43147;BME280;28752;48.266;7.402;2024-01-06T12:43:22;98635.88;;;11.77;56.67
43147;BME280;28752;48.266;7.402;2024-01-06T12:45:48;98633.97;;;11.46;57.38
43147;BME280;28752;48.266;7.402;2024-01-06T12:48:14;98645.59;;;11.85;56.75
43147;BME280;28752;48.266;7.402;2024-01-06T12:50:39;98643.06;;;11.60;56.85
43147;BME280;28752;48.266;7.402;2024-01-06T12:53:04;98642.72;;;11.55;56.63
43147;BME280;28752;48.266;7.402;2024-01-06T12:55:30;98633.38;;;11.76;56.89
43147;BME280;28752;48.266;7.402;2024-01-06T12:57:55;98633.91;;;11.71;56.99